createdAt,value
2017-04-13T00:01:12.143Z,0
2017-04-13T00:03:24.399Z,0
2017-04-13T00:05:36.656Z,0
2017-04-13T00:07:48.946Z,0
2017-04-13T00:10:01.199Z,0
2017-04-13T00:12:13.462Z,0
2017-04-13T00:14:25.867Z,0
2017-04-13T00:16:38.078Z,0
2017-04-13T00:18:45.509Z,0
2017-04-13T00:20:56.248Z,0
2017-04-13T00:23:08.499Z,0
2017-04-13T00:25:20.783Z,0
2017-04-13T00:27:28.068Z,0
2017-04-13T00:29:40.342Z,0
2017-04-13T00:31:53.075Z,0
2017-04-13T00:34:00.287Z,0
2017-04-13T00:36:12.666Z,0
2017-04-13T00:38:19.855Z,0
2017-04-13T00:40:32.212Z,0
2017-04-13T00:42:44.504Z,0
2017-04-13T00:44:56.716Z,0
2017-04-13T00:47:08.912Z,0
2017-04-13T00:49:21.139Z,0
2017-04-13T00:51:28.475Z,0
2017-04-13T00:53:40.862Z,0
2017-04-13T00:55:53.957Z,0
2017-04-13T00:58:06.299Z,0
2017-04-13T01:00:18.548Z,0
2017-04-13T01:02:30.904Z,0
2017-04-13T01:04:43.163Z,0
2017-04-13T01:06:48.797Z,0
2017-04-13T01:09:01.083Z,0
2017-04-13T01:11:13.414Z,0
2017-04-13T01:13:23.998Z,0
2017-04-13T01:15:36.395Z,0
2017-04-13T01:17:48.648Z,0
2017-04-13T01:20:00.878Z,0
2017-04-13T01:22:13.123Z,0
2017-04-13T01:24:25.327Z,0
2017-04-13T01:26:32.684Z,0
2017-04-13T01:28:45.023Z,0
2017-04-13T01:30:57.957Z,0
2017-04-13T01:33:10.290Z,0
2017-04-13T01:35:22.547Z,0
2017-04-13T01:37:29.904Z,0
2017-04-13T01:39:42.118Z,0
2017-04-13T01:41:54.388Z,0
2017-04-13T01:44:07.497Z,0
2017-04-13T01:46:19.734Z,0
2017-04-13T01:48:32.062Z,0
2017-04-13T01:50:44.185Z,0
2017-04-13T01:52:56.445Z,0
2017-04-13T01:55:03.680Z,0
2017-04-13T01:57:15.917Z,0
2017-04-13T01:59:28.144Z,0
2017-04-13T02:01:40.388Z,0
2017-04-13T02:03:52.748Z,0
2017-04-13T02:06:05.351Z,0
2017-04-13T02:08:12.854Z,0
2017-04-13T02:10:25.103Z,0
2017-04-13T02:12:32.342Z,0
2017-04-13T02:14:44.579Z,0
2017-04-13T02:16:56.768Z,0
2017-04-13T02:19:09.092Z,0
2017-04-13T02:21:21.340Z,0
2017-04-13T02:23:33.576Z,0
2017-04-13T02:25:45.949Z,0
2017-04-13T02:27:58.229Z,0
2017-04-13T02:30:10.521Z,0
2017-04-13T02:32:22.739Z,0
2017-04-13T02:34:35.085Z,0
2017-04-13T02:36:47.415Z,0
2017-04-13T02:38:59.618Z,0
2017-04-13T02:41:11.926Z,0
2017-04-13T02:43:24.535Z,0
2017-04-13T02:45:36.886Z,0
2017-04-13T02:47:44.293Z,0
2017-04-13T02:49:57.307Z,0
2017-04-13T02:52:09.536Z,0
2017-04-13T02:54:21.716Z,0
2017-04-13T02:56:33.989Z,0
2017-04-13T02:58:46.236Z,0
2017-04-13T03:00:58.512Z,0
2017-04-13T03:03:10.773Z,0
2017-04-13T03:05:23.039Z,0
2017-04-13T03:07:35.296Z,0
2017-04-13T03:09:47.693Z,0
2017-04-13T03:11:59.894Z,0
2017-04-13T03:14:12.604Z,0
2017-04-13T03:16:19.941Z,0
2017-04-13T03:18:33.016Z,0
2017-04-13T03:20:46.232Z,0
2017-04-13T03:22:58.513Z,0
2017-04-13T03:25:10.796Z,0
2017-04-13T03:27:23.091Z,0
2017-04-13T03:29:35.451Z,0
2017-04-13T03:31:47.696Z,0
2017-04-13T03:33:59.889Z,0
2017-04-13T03:36:12.154Z,0
2017-04-13T03:38:24.434Z,0
2017-04-13T03:40:36.715Z,0
2017-04-13T03:42:49.035Z,0
2017-04-13T03:45:01.288Z,0
2017-04-13T03:47:13.549Z,0
2017-04-13T03:49:25.833Z,0
2017-04-13T03:51:38.057Z,0
2017-04-13T03:53:50.598Z,0
2017-04-13T03:56:03.158Z,0
2017-04-13T03:58:15.489Z,0
2017-04-13T04:00:27.815Z,0
2017-04-13T04:02:40.032Z,0
2017-04-13T04:04:52.341Z,0
2017-04-13T04:07:04.607Z,0
2017-04-13T04:09:16.908Z,0
2017-04-13T04:11:29.182Z,0
2017-04-13T04:13:41.427Z,0
2017-04-13T04:15:53.651Z,0
2017-04-13T04:18:05.908Z,0
2017-04-13T04:20:18.216Z,0
2017-04-13T04:22:30.649Z,0
2017-04-13T04:24:42.850Z,5
2017-04-13T04:26:55.123Z,5
2017-04-13T04:29:07.555Z,10
2017-04-13T04:31:19.892Z,10
2017-04-13T04:33:32.452Z,15
2017-04-13T04:35:44.695Z,15
2017-04-13T04:37:56.935Z,15
2017-04-13T04:40:09.342Z,20
2017-04-13T04:42:21.783Z,25
2017-04-13T04:44:34.045Z,30
2017-04-13T04:46:46.219Z,35
2017-04-13T04:48:58.448Z,40
2017-04-13T04:51:10.647Z,45
2017-04-13T04:53:22.940Z,50
2017-04-13T04:55:35.077Z,55
2017-04-13T04:57:49.063Z,55
2017-04-13T05:00:04.344Z,65
2017-04-13T05:02:16.666Z,75
2017-04-13T05:04:28.991Z,80
2017-04-13T05:06:42.948Z,80
2017-04-13T05:08:55.208Z,90
2017-04-13T05:11:07.705Z,95
2017-04-13T05:13:21.659Z,95
2017-04-13T05:15:33.960Z,100
2017-04-13T05:17:46.168Z,110
2017-04-13T05:19:58.439Z,115
2017-04-13T05:22:10.689Z,130
2017-04-13T05:24:22.887Z,145
2017-04-13T05:26:30.241Z,155
2017-04-13T05:28:42.517Z,150
2017-04-13T05:30:54.755Z,145
2017-04-13T05:33:02.072Z,155
2017-04-13T05:35:14.379Z,155
2017-04-13T05:37:26.659Z,165
2017-04-13T05:39:39.384Z,175
2017-04-13T05:41:51.756Z,185
2017-04-13T05:47:55.243Z,210
2017-04-13T05:50:07.943Z,220
2017-04-13T05:52:50.322Z,215
2017-04-13T05:54:58.367Z,220
2017-04-13T05:57:10.618Z,225
2017-04-13T05:59:29.666Z,220
2017-04-13T06:01:52.059Z,215
2017-04-13T06:04:07.772Z,210
2017-04-13T06:06:26.056Z,215
2017-04-13T06:09:00.346Z,185
2017-04-13T06:11:13.312Z,185
2017-04-13T06:13:35.475Z,195
2017-04-13T06:16:15.555Z,220
2017-04-13T06:18:29.029Z,220
2017-04-13T06:20:41.592Z,220
2017-04-13T06:22:54.728Z,225
2017-04-13T06:25:07.990Z,210
2017-04-13T06:27:16.026Z,205
2017-04-13T06:29:29.526Z,210
2017-04-13T06:31:42.637Z,195
2017-04-13T06:33:55.654Z,180
2017-04-13T06:36:08.321Z,150
2017-04-13T06:38:21.360Z,140
2017-04-13T06:40:34.190Z,140
2017-04-13T06:43:23.591Z,135
2017-04-13T06:45:37.422Z,140
2017-04-13T06:47:51.002Z,115
2017-04-13T06:50:02.220Z,105
2017-04-13T06:52:45.746Z,100
2017-04-13T06:54:58.240Z,105
2017-04-13T06:57:14.267Z,110
2017-04-13T06:59:27.889Z,110
2017-04-13T07:01:40.178Z,100
2017-04-13T07:03:52.788Z,110
2017-04-13T07:06:05.359Z,110
2017-04-13T07:08:45.793Z,110
2017-04-13T07:11:27.737Z,120
2017-04-13T07:14:08.516Z,160
2017-04-13T07:16:56.674Z,115
2017-04-13T07:19:09.986Z,110
2017-04-13T07:22:00.635Z,195
2017-04-13T07:24:52.050Z,165
2017-04-13T07:27:34.246Z,170
2017-04-13T07:29:48.471Z,125
2017-04-13T07:32:00.700Z,155
2017-04-13T07:34:14.824Z,260
2017-04-13T07:36:28.564Z,270
2017-04-13T07:38:43.181Z,255
2017-04-13T07:41:28.589Z,360
2017-04-13T07:44:09.600Z,365
2017-04-13T07:46:56.489Z,345
2017-04-13T07:49:11.620Z,470
2017-04-13T07:51:25.570Z,625
2017-04-13T07:53:40.316Z,765
2017-04-13T07:55:53.434Z,760
2017-04-13T07:58:07.623Z,750
2017-04-13T08:00:22.304Z,835
2017-04-13T08:02:35.467Z,975
2017-04-13T08:04:48.146Z,875
2017-04-13T08:07:00.498Z,870
2017-04-13T08:09:14.259Z,710
2017-04-13T08:11:21.502Z,495
2017-04-13T08:13:29.036Z,375
2017-04-13T08:15:41.285Z,325
2017-04-13T08:17:53.560Z,360
2017-04-13T08:20:05.785Z,395
2017-04-13T08:22:18.383Z,385
2017-04-13T08:24:30.728Z,240
2017-04-13T08:26:43.046Z,200
2017-04-13T08:28:55.449Z,155
2017-04-13T08:31:07.737Z,125
2017-04-13T08:33:20.133Z,200
2017-04-13T08:35:33.245Z,240
2017-04-13T08:37:38.921Z,210
2017-04-13T08:39:47.231Z,170
2017-04-13T08:41:59.617Z,155
2017-04-13T08:44:11.947Z,205
2017-04-13T08:46:24.310Z,220
2017-04-13T08:48:36.540Z,290
2017-04-13T08:50:48.741Z,370
2017-04-13T08:53:00.991Z,635
2017-04-13T08:55:13.266Z,505
2017-04-13T08:57:25.509Z,460
2017-04-13T08:59:38.049Z,600
2017-04-13T09:01:50.392Z,590
2017-04-13T09:04:02.797Z,555
2017-04-13T09:06:15.582Z,710
2017-04-13T09:08:28.101Z,480
2017-04-13T09:10:40.802Z,490
2017-04-13T09:12:53.480Z,475
2017-04-13T09:15:06.687Z,415
2017-04-13T09:17:18.999Z,455
2017-04-13T09:19:31.313Z,455
2017-04-13T09:21:43.810Z,430
2017-04-13T09:23:56.226Z,375
2017-04-13T09:26:08.511Z,360
2017-04-13T09:28:15.901Z,535
2017-04-13T09:30:28.222Z,590
2017-04-13T09:32:40.442Z,535
2017-04-13T09:34:52.633Z,390
2017-04-13T09:37:05.053Z,320
2017-04-13T09:39:17.725Z,390
2017-04-13T09:41:31.287Z,310
2017-04-13T09:43:43.832Z,345
2017-04-13T09:45:56.236Z,395
2017-04-13T09:48:08.781Z,495
2017-04-13T09:50:21.424Z,395
2017-04-13T09:52:33.675Z,480
2017-04-13T09:54:46.023Z,640
2017-04-13T09:56:58.300Z,615
2017-04-13T09:59:10.637Z,680
2017-04-13T10:01:22.875Z,750
2017-04-13T10:03:35.460Z,840
2017-04-13T10:05:47.808Z,850
2017-04-13T10:08:00.059Z,825
2017-04-13T10:10:12.427Z,945
2017-04-13T10:12:24.734Z,635
2017-04-13T10:14:37.095Z,510
2017-04-13T10:17:07.169Z,640
2017-04-13T10:19:19.779Z,475
2017-04-13T10:21:32.152Z,450
2017-04-13T10:23:44.386Z,640
2017-04-13T10:25:56.615Z,890
2017-04-13T10:28:08.986Z,1060
2017-04-13T10:30:31.626Z,890
2017-04-13T10:33:00.434Z,570
2017-04-13T10:35:23.870Z,490
2017-04-13T10:37:38.765Z,590
2017-04-13T10:40:05.222Z,700
2017-04-13T10:44:44.728Z,1225
2017-04-13T10:46:58.089Z,1195
2017-04-13T10:49:10.831Z,1160
2017-04-13T10:51:32.083Z,1050
2017-04-13T10:53:53.431Z,855
2017-04-13T10:56:30.671Z,635
2017-04-13T10:59:30.118Z,850
2017-04-13T11:02:27.696Z,1050
2017-04-13T11:05:22.006Z,975
2017-04-13T11:08:18.273Z,895
2017-04-13T11:11:18.568Z,1000
2017-04-13T11:14:21.052Z,825
2017-04-13T11:17:13.529Z,770
2017-04-13T11:20:14.052Z,995
2017-04-13T11:23:08.717Z,1335
2017-04-13T11:25:48.418Z,1485
2017-04-13T11:27:56.031Z,1615
2017-04-13T11:30:09.050Z,1690
2017-04-13T11:32:22.961Z,1440
2017-04-13T11:34:35.588Z,1440
2017-04-13T11:36:47.923Z,1270
2017-04-13T11:39:00.206Z,1190
2017-04-13T11:41:12.550Z,1370
2017-04-13T11:43:19.993Z,1100
2017-04-13T11:45:32.441Z,840
2017-04-13T11:47:38.038Z,955
2017-04-13T11:49:50.328Z,510
2017-04-13T11:51:57.596Z,500
2017-04-13T11:54:09.964Z,405
2017-04-13T11:56:22.329Z,510
2017-04-13T11:58:34.662Z,670
2017-04-13T12:00:47.023Z,845
2017-04-13T12:02:59.301Z,920
2017-04-13T12:05:11.691Z,1080
2017-04-13T12:07:23.985Z,1650
2017-04-13T12:09:36.232Z,1810
2017-04-13T12:11:49.741Z,2175
2017-04-13T12:13:57.281Z,2105
2017-04-13T12:16:09.582Z,2535
2017-04-13T12:18:21.923Z,1825
2017-04-13T12:20:34.282Z,2560
2017-04-13T12:22:46.523Z,1660
2017-04-13T12:24:58.866Z,1695
2017-04-13T12:27:11.141Z,685
2017-04-13T12:29:23.514Z,1025
2017-04-13T12:31:35.958Z,1660
2017-04-13T12:33:48.553Z,985
2017-04-13T12:36:00.885Z,945
2017-04-13T12:38:45.179Z,1145
2017-04-13T12:40:57.446Z,720
2017-04-13T12:43:09.805Z,540
2017-04-13T12:45:22.175Z,480
2017-04-13T12:47:34.672Z,355
2017-04-13T12:49:46.990Z,350
2017-04-13T12:51:54.654Z,290
2017-04-13T12:54:07.207Z,280
2017-04-13T12:56:19.530Z,340
2017-04-13T12:58:31.901Z,665
2017-04-13T13:00:44.228Z,925
2017-04-13T13:02:56.715Z,685
2017-04-13T13:05:08.988Z,870
2017-04-13T13:07:16.319Z,1245
2017-04-13T13:09:28.520Z,1135
2017-04-13T13:11:40.740Z,1075
2017-04-13T13:13:52.991Z,1375
2017-04-13T13:16:05.261Z,1260
2017-04-13T13:18:12.626Z,1535
2017-04-13T13:20:24.833Z,2075
2017-04-13T13:22:37.044Z,1290
2017-04-13T13:24:49.284Z,930
2017-04-13T13:27:01.614Z,1425
2017-04-13T13:29:14.014Z,1345
2017-04-13T13:31:26.294Z,910
2017-04-13T13:33:38.488Z,720
2017-04-13T13:35:50.810Z,645
2017-04-13T13:38:03.044Z,855
2017-04-13T13:40:15.279Z,1100
2017-04-13T13:42:27.574Z,1105
2017-04-13T13:44:39.830Z,1225
2017-04-13T13:46:52.293Z,1250
2017-04-13T13:49:04.590Z,985
2017-04-13T13:51:16.913Z,955
2017-04-13T13:53:29.204Z,1080
2017-04-13T13:55:41.465Z,1170
2017-04-13T13:57:54.104Z,1265
2017-04-13T14:00:06.581Z,1215
2017-04-13T14:02:18.921Z,1285
2017-04-13T14:04:31.238Z,1585
2017-04-13T14:06:43.570Z,1120
2017-04-13T14:08:55.958Z,995
2017-04-13T14:11:08.221Z,1130
2017-04-13T14:13:20.900Z,965
2017-04-13T14:15:33.411Z,720
2017-04-13T14:17:45.779Z,785
2017-04-13T14:19:58.295Z,735
2017-04-13T14:22:10.594Z,795
2017-04-13T14:24:23.016Z,880
2017-04-13T14:26:35.366Z,825
2017-04-13T14:28:47.727Z,770
2017-04-13T14:30:55.251Z,855
2017-04-13T14:33:07.610Z,915
2017-04-13T14:35:20.119Z,815
2017-04-13T14:37:32.405Z,600
2017-04-13T14:39:44.645Z,465
2017-04-13T14:41:57.051Z,420
2017-04-13T14:44:09.366Z,515
2017-04-13T14:46:21.813Z,560
2017-04-13T14:48:34.132Z,685
2017-04-13T14:50:46.462Z,910
2017-04-13T14:52:58.905Z,1290
2017-04-13T14:55:11.234Z,1235
2017-04-13T14:57:23.639Z,945
2017-04-13T14:59:35.948Z,640
2017-04-13T15:01:48.165Z,535
2017-04-13T15:04:00.514Z,625
2017-04-13T15:06:12.850Z,680
2017-04-13T15:08:25.233Z,650
2017-04-13T15:10:39.480Z,605
2017-04-13T15:12:52.672Z,620
2017-04-13T15:15:05.892Z,810
2017-04-13T15:17:20.110Z,660
2017-04-13T15:19:29.336Z,585
2017-04-13T15:21:43.756Z,575
2017-04-13T15:23:57.775Z,605
2017-04-13T15:26:11.719Z,575
2017-04-13T15:28:25.961Z,540
2017-04-13T15:30:40.280Z,555
2017-04-13T15:32:53.968Z,595
2017-04-13T15:35:08.901Z,665
2017-04-13T15:37:22.833Z,775
2017-04-13T15:39:43.301Z,700
2017-04-13T15:41:56.588Z,635
2017-04-13T15:44:09.894Z,675
2017-04-13T15:46:25.527Z,685
2017-04-13T15:48:35.378Z,735
2017-04-13T15:50:48.571Z,680
2017-04-13T15:53:04.691Z,910
2017-04-13T15:55:19.793Z,885
2017-04-13T15:57:32.855Z,820
2017-04-13T15:59:47.931Z,795
2017-04-13T16:02:02.009Z,715
2017-04-13T16:04:16.250Z,670
2017-04-13T16:06:29.113Z,745
2017-04-13T16:08:42.183Z,655
2017-04-13T16:10:54.597Z,615
2017-04-13T16:13:06.980Z,560
2017-04-13T16:15:19.376Z,585
2017-04-13T16:17:31.636Z,585
2017-04-13T16:19:44.016Z,560
2017-04-13T16:21:56.239Z,540
2017-04-13T16:24:08.628Z,510
2017-04-13T16:26:20.974Z,480
2017-04-13T16:28:33.687Z,430
2017-04-13T16:30:45.996Z,410
2017-04-13T16:32:58.299Z,380
2017-04-13T16:35:10.632Z,365
2017-04-13T16:37:23.103Z,355
2017-04-13T16:39:35.379Z,350
2017-04-13T16:41:47.843Z,345
2017-04-13T16:44:00.437Z,315
2017-04-13T16:46:12.664Z,295
2017-04-13T16:48:24.892Z,295
2017-04-13T16:50:37.200Z,270
2017-04-13T16:52:44.545Z,265
2017-04-13T16:54:57.214Z,265
2017-04-13T16:57:09.580Z,250
2017-04-13T16:59:21.984Z,235
2017-04-13T17:01:34.380Z,225
2017-04-13T17:03:41.854Z,210
2017-04-13T17:05:58.374Z,205
2017-04-13T17:08:49.136Z,195
2017-04-13T17:11:43.015Z,180
2017-04-13T17:14:39.851Z,165
2017-04-13T17:17:39.256Z,160
2017-04-13T17:20:46.237Z,145
2017-04-13T17:23:50.250Z,130
2017-04-13T17:26:56.009Z,125
2017-04-13T17:29:59.651Z,120
2017-04-13T17:33:02.361Z,110
2017-04-13T17:35:57.821Z,100
2017-04-13T17:38:57.581Z,85
2017-04-13T17:41:58.357Z,70
2017-04-13T17:44:57.846Z,60
2017-04-13T17:47:58.553Z,45
2017-04-13T17:50:40.015Z,40
2017-04-13T17:52:53.371Z,35
2017-04-13T17:55:05.820Z,30
2017-04-13T17:57:18.750Z,25
2017-04-13T17:59:31.205Z,20
2017-04-13T18:01:43.525Z,15
2017-04-13T18:03:55.826Z,15
2017-04-13T18:06:03.224Z,10
2017-04-13T18:10:26.165Z,5
2017-04-13T18:12:40.294Z,5
2017-04-13T18:14:53.192Z,0
2017-04-13T18:17:06.428Z,0
2017-04-13T18:19:18.897Z,0
2017-04-13T18:24:41.063Z,0
2017-04-13T18:26:54.015Z,0
2017-04-13T18:29:07.406Z,0
2017-04-13T18:31:59.063Z,0
2017-04-13T18:34:50.482Z,0
2017-04-13T18:37:40.013Z,0
2017-04-13T18:40:26.062Z,0
2017-04-13T18:42:50.870Z,0
2017-04-13T18:45:05.872Z,0
2017-04-13T18:47:18.834Z,0
2017-04-13T18:49:33.675Z,0
2017-04-13T18:52:06.223Z,0
2017-04-13T18:54:18.654Z,0
2017-04-13T18:56:25.923Z,0
2017-04-13T18:58:38.280Z,0
2017-04-13T19:00:56.180Z,0
2017-04-13T19:03:09.258Z,0
2017-04-13T19:05:22.100Z,0
2017-04-13T19:07:34.396Z,0
2017-04-13T19:09:46.697Z,0
2017-04-13T19:11:54.117Z,0
2017-04-13T19:14:06.447Z,0
2017-04-13T19:16:18.650Z,0
2017-04-13T19:18:31.048Z,0
2017-04-13T19:20:43.354Z,0
2017-04-13T19:22:55.800Z,0
2017-04-13T19:25:09.289Z,0
2017-04-13T19:27:21.651Z,0
2017-04-13T19:29:34.128Z,0
2017-04-13T19:31:49.105Z,0
2017-04-13T19:34:01.492Z,0
2017-04-13T19:36:13.907Z,0
2017-04-13T19:38:21.342Z,0
2017-04-13T19:40:28.765Z,0
2017-04-13T19:42:41.266Z,0
2017-04-13T19:44:53.618Z,0
2017-04-13T19:47:05.939Z,0
2017-04-13T19:49:18.200Z,0
2017-04-13T19:51:30.544Z,0
2017-04-13T19:53:37.908Z,0
2017-04-13T19:55:50.351Z,0
2017-04-13T19:58:02.718Z,0
2017-04-13T20:00:15.192Z,0
2017-04-13T20:02:27.627Z,0
2017-04-13T20:04:40.059Z,0
2017-04-13T20:06:52.439Z,0
2017-04-13T20:09:04.853Z,0
2017-04-13T20:11:17.221Z,0
2017-04-13T20:13:29.513Z,0
2017-04-13T20:15:42.821Z,0
2017-04-13T20:17:55.110Z,0
2017-04-13T20:20:09.136Z,0
2017-04-13T20:22:22.762Z,0
2017-04-13T20:24:36.878Z,0
2017-04-13T20:26:49.461Z,0
2017-04-13T20:29:02.301Z,0
2017-04-13T20:31:11.014Z,0
2017-04-13T20:33:24.193Z,0
2017-04-13T20:35:37.063Z,0
2017-04-13T20:37:51.575Z,0
2017-04-13T20:40:05.471Z,0
2017-04-13T20:42:20.829Z,0
2017-04-13T20:44:33.913Z,0
2017-04-13T20:46:53.646Z,0
2017-04-13T20:49:26.594Z,0
2017-04-13T20:51:34.359Z,0
2017-04-13T20:53:46.955Z,0
2017-04-13T20:55:59.584Z,0
2017-04-13T20:58:13.103Z,0
2017-04-13T21:00:23.934Z,0
2017-04-13T21:02:32.710Z,0
2017-04-13T21:04:46.910Z,0
2017-04-13T21:07:00.302Z,0
2017-04-13T21:09:13.858Z,0
2017-04-13T21:11:26.842Z,0
2017-04-13T21:13:39.841Z,0
2017-04-13T21:15:53.216Z,0
2017-04-13T21:18:06.318Z,0
2017-04-13T21:20:19.847Z,0
2017-04-13T21:22:32.820Z,0
2017-04-13T21:24:46.228Z,0
2017-04-13T21:26:59.582Z,0
2017-04-13T21:29:13.084Z,0
2017-04-13T21:31:21.221Z,0
2017-04-13T21:33:34.276Z,0
2017-04-13T21:35:47.693Z,0
2017-04-13T21:38:00.836Z,0
2017-04-13T21:40:13.848Z,0
2017-04-13T21:42:26.403Z,0
2017-04-13T21:44:39.135Z,0
2017-04-13T21:46:52.365Z,0
2017-04-13T21:49:05.180Z,0
2017-04-13T21:51:18.515Z,0
2017-04-13T21:53:32.118Z,0
2017-04-13T21:55:48.159Z,0
2017-04-13T21:58:04.066Z,0
2017-04-13T22:00:17.368Z,0
2017-04-13T22:02:30.375Z,0
2017-04-13T22:04:43.580Z,0
2017-04-13T22:06:46.855Z,0
2017-04-13T22:09:00.036Z,0
2017-04-13T22:11:13.153Z,0
2017-04-13T22:13:26.221Z,0
2017-04-13T22:15:39.656Z,0
2017-04-13T22:17:53.389Z,0
2017-04-13T22:20:06.600Z,0
2017-04-13T22:22:20.021Z,0
2017-04-13T22:24:32.685Z,0
2017-04-13T22:26:45.045Z,0
2017-04-13T22:28:57.291Z,0
2017-04-13T22:31:09.597Z,0
2017-04-13T22:33:21.881Z,0
2017-04-13T22:35:35.175Z,0
2017-04-13T22:37:47.498Z,0
2017-04-13T22:40:00.017Z,0
2017-04-13T22:42:12.419Z,0
2017-04-13T22:44:24.790Z,0
2017-04-13T22:46:37.026Z,0
2017-04-13T22:48:49.467Z,0
2017-04-13T22:51:01.772Z,0
2017-04-13T22:53:13.967Z,0
2017-04-13T22:55:21.313Z,0
2017-04-13T22:57:33.587Z,0
2017-04-13T22:59:45.914Z,0
2017-04-13T23:01:58.161Z,0
2017-04-13T23:04:10.540Z,0
2017-04-13T23:06:17.768Z,0
2017-04-13T23:08:30.175Z,0
2017-04-13T23:10:42.514Z,0
2017-04-13T23:12:49.883Z,0
2017-04-13T23:15:02.066Z,0
2017-04-13T23:17:14.300Z,0
2017-04-13T23:19:26.555Z,0
2017-04-13T23:21:38.863Z,0
2017-04-13T23:23:51.029Z,0
2017-04-13T23:26:03.375Z,0
2017-04-13T23:28:15.690Z,0
2017-04-13T23:30:27.967Z,0
2017-04-13T23:32:40.240Z,0
2017-04-13T23:34:47.539Z,0
2017-04-13T23:36:54.749Z,0
2017-04-13T23:39:07.052Z,0
2017-04-13T23:41:19.295Z,0
2017-04-13T23:43:31.625Z,0
2017-04-13T23:45:43.928Z,0
2017-04-13T23:47:56.230Z,0
2017-04-13T23:50:08.558Z,0
2017-04-13T23:52:20.806Z,0
2017-04-13T23:54:33.110Z,0
2017-04-13T23:56:45.433Z,0
2017-04-13T23:58:57.672Z,0
